Big Bear Station Historical Data
Daily Summary for April 19, 2017 Units:  English    Metric   Both
Next Day »
Daily Weekly Monthly Yearly Custom
  High: Low: Average:
Temperature: 64.4 °F 29.3 °F 47.1 °F
Dew Point: 43.1 °F 14.2 °F 28.8 °F
Humidity: 89% 17% 53%
Wind Speed: 6.8mph 0.0mph 2.4mph
Wind Gust: -999.0mph - -
Wind- - WSW
Pressure: 30.24 in 30.16 in -
Precipitation: 0.00 in    
Historical Graphs
 
 
Tabular Data for April 19, 2017
Time Temperature Dew Point Pressure Wind Wind Speed Wind Gust Humidity Rainfall Rate (Hourly)
00:07 41.0 °F 33.7 °F 30.20 in NW 2.7 mph -999.0 mph 75% 0 in
00:22 40.1 °F 33.5 °F 30.20 in Calm   -999.0 mph 77% 0 in
00:37 39.6 °F 33.0 °F 30.19 in North 2.7 mph -999.0 mph 77% 0 in
00:53 39.4 °F 32.5 °F 30.19 in Calm   -999.0 mph 76% 0 in
01:08 39.4 °F 32.1 °F 30.19 in NNW 1.7 mph -999.0 mph 75% 0 in
01:23 39.7 °F 31.8 °F 30.19 in NW 2.7 mph -999.0 mph 73% 0 in
01:39 39.6 °F 32.0 °F 30.18 in SE 1.7 mph -999.0 mph 74% 0 in
01:54 39.4 °F 32.5 °F 30.17 in NNW 2.7 mph -999.0 mph 76% 0 in
02:10 38.7 °F 31.8 °F 30.17 in Calm   -999.0 mph 76% 0 in
02:25 38.5 °F 31.3 °F 30.17 in SE 1.7 mph -999.0 mph 75% 0 in
02:40 36.5 °F 29.7 °F 30.17 in South 1.7 mph -999.0 mph 76% 0 in
02:55 35.6 °F 28.8 °F 30.17 in SE 1.1 mph -999.0 mph 76% 0 in
03:10 34.7 °F 28.2 °F 30.17 in SSE 1.7 mph -999.0 mph 77% 0 in
03:26 34.0 °F 28.2 °F 30.17 in South 2.2 mph -999.0 mph 79% 0 in
03:41 33.4 °F 27.9 °F 30.17 in South 1.1 mph -999.0 mph 80% 0 in
03:56 32.7 °F 28.1 °F 30.17 in Calm   -999.0 mph 83% 0 in
04:11 32.5 °F 28.5 °F 30.17 in SSW 2.2 mph -999.0 mph 85% 0 in
04:26 32.0 °F 28.3 °F 30.17 in South 3.2 mph -999.0 mph 86% 0 in
04:42 31.5 °F 27.8 °F 30.17 in Calm   -999.0 mph 86% 0 in
04:57 31.6 °F 28.7 °F 30.17 in SSW 2.2 mph -999.0 mph 89% 0 in
05:12 31.1 °F 28.0 °F 30.16 in ESE 1.1 mph -999.0 mph 88% 0 in
05:27 31.3 °F 26.7 °F 30.16 in South 3.2 mph -999.0 mph 83% 0 in
05:42 29.8 °F 21.2 °F 30.17 in South 1.7 mph -999.0 mph 70% 0 in
05:58 29.8 °F 20.2 °F 30.17 in SSE 2.7 mph -999.0 mph 67% 0 in
06:13 29.7 °F 17.5 °F 30.17 in SSW 2.7 mph -999.0 mph 60% 0 in
06:28 29.3 °F 18.6 °F 30.18 in Calm   -999.0 mph 64% 0 in
06:43 29.3 °F 16.7 °F 30.18 in South 2.7 mph -999.0 mph 59% 0 in
06:59 29.3 °F 18.6 °F 30.19 in SSE 2.7 mph -999.0 mph 64% 0 in
07:14 30.4 °F 17.8 °F 30.19 in ESE 1.7 mph -999.0 mph 59% 0 in
07:29 31.8 °F 18.3 °F 30.19 in Calm   -999.0 mph 57% 0 in
07:44 34.5 °F 21.6 °F 30.19 in SSW 2.7 mph -999.0 mph 59% 0 in
08:00 34.5 °F 22.8 °F 30.20 in Calm   -999.0 mph 62% 0 in
08:15 38.5 °F 19.5 °F 30.20 in NNW 1.1 mph -999.0 mph 46% 0 in
08:30 40.5 °F 19.2 °F 30.20 in Calm   -999.0 mph 42% 0 in
08:46 42.6 °F 18.1 °F 30.20 in North 1.7 mph -999.0 mph 37% 0 in
09:01 44.2 °F 18.3 °F 30.20 in Calm   -999.0 mph 35% 0 in
09:16 46.8 °F 19.2 °F 30.20 in NNW 1.7 mph -999.0 mph 33% 0 in
09:32 48.4 °F 15.9 °F 30.21 in Calm   -999.0 mph 27% 0 in
09:47 49.5 °F 14.2 °F 30.21 in NE 2.2 mph -999.0 mph 24% 0 in
10:02 50.7 °F 15.2 °F 30.21 in North 3.7 mph -999.0 mph 24% 0 in
10:17 52.2 °F 16.5 °F 30.21 in NNE 1.7 mph -999.0 mph 24% 0 in
10:33 54.1 °F 17.1 °F 30.21 in NW 3.7 mph -999.0 mph 23% 0 in
10:48 55.0 °F 19.8 °F 30.22 in WNW 2.7 mph -999.0 mph 25% 0 in
11:03 57.9 °F 19.3 °F 30.21 in ESE 1.7 mph -999.0 mph 22% 0 in
11:19 58.5 °F 16.3 °F 30.21 in NNW 3.7 mph -999.0 mph 19% 0 in
11:34 60.3 °F 15.3 °F 30.21 in NW 3.7 mph -999.0 mph 17% 0 in
11:49 61.7 °F 23.5 °F 30.21 in NNW 3.7 mph -999.0 mph 23% 0 in
12:04 61.7 °F 29.9 °F 30.21 in NNW 4.2 mph -999.0 mph 30% 0 in
12:20 63.0 °F 34.2 °F 30.21 in NNW 5.8 mph -999.0 mph 34% 0 in
12:36 62.8 °F 36.1 °F 30.21 in NNW 4.7 mph -999.0 mph 37% 0 in
12:51 62.4 °F 35.8 °F 30.21 in NNW 5.8 mph -999.0 mph 37% 0 in
13:06 62.2 °F 36.9 °F 30.21 in NE 4.7 mph -999.0 mph 39% 0 in
13:21 63.1 °F 39.0 °F 30.21 in NW 4.7 mph -999.0 mph 41% 0 in
13:36 63.5 °F 39.4 °F 30.21 in North 3.7 mph -999.0 mph 41% 0 in
13:52 62.2 °F 41.7 °F 30.21 in NW 4.7 mph -999.0 mph 47% 0 in
14:07 62.8 °F 41.7 °F 30.21 in NW 6.8 mph -999.0 mph 46% 0 in
14:23 62.6 °F 42.1 °F 30.21 in NNE 5.3 mph -999.0 mph 47% 0 in
14:38 63.1 °F 43.1 °F 30.21 in ENE 5.3 mph -999.0 mph 48% 0 in
14:53 64.4 °F 42.6 °F 30.21 in NW 4.7 mph -999.0 mph 45% 0 in
15:08 62.1 °F 41.1 °F 30.21 in NW 4.7 mph -999.0 mph 46% 0 in
15:24 61.9 °F 42.0 °F 30.21 in SW 2.2 mph -999.0 mph 48% 0 in
15:39 62.1 °F 40.5 °F 30.21 in NW 3.7 mph -999.0 mph 45% 0 in
15:54 61.2 °F 39.1 °F 30.21 in WNW 2.7 mph -999.0 mph 44% 0 in
16:09 61.0 °F 37.7 °F 30.21 in West 1.7 mph -999.0 mph 42% 0 in
16:24 61.0 °F 38.3 °F 30.21 in North 3.7 mph -999.0 mph 43% 0 in
16:40 61.5 °F 38.2 °F 30.21 in West 2.2 mph -999.0 mph 42% 0 in
16:55 64.4 °F 38.2 °F 30.21 in NNW 4.2 mph -999.0 mph 38% 0 in
17:10 64.4 °F 39.6 °F 30.21 in NW 3.7 mph -999.0 mph 40% 0 in
17:25 64.4 °F 39.6 °F 30.21 in NW 3.7 mph -999.0 mph 40% 0 in
17:41 62.4 °F 40.8 °F 30.21 in NNW 4.2 mph -999.0 mph 45% 0 in
17:57 62.6 °F 33.1 °F 30.21 in NNW 4.2 mph -999.0 mph 33% 0 in
18:12 62.6 °F 31.5 °F 30.21 in West 2.2 mph -999.0 mph 31% 0 in
18:27 59.9 °F 30.7 °F 30.21 in SSW 2.2 mph -999.0 mph 33% 0 in
18:42 57.6 °F 29.4 °F 30.21 in NW 1.7 mph -999.0 mph 34% 0 in
18:57 54.1 °F 27.0 °F 30.21 in NW 4.2 mph -999.0 mph 35% 0 in
19:13 52.0 °F 26.5 °F 30.21 in South 2.7 mph -999.0 mph 37% 0 in
19:28 50.5 °F 27.1 °F 30.21 in Calm   -999.0 mph 40% 0 in
19:43 49.6 °F 23.7 °F 30.21 in East 1.1 mph -999.0 mph 36% 0 in
19:58 48.7 °F 22.9 °F 30.21 in SSW 2.7 mph -999.0 mph 36% 0 in
20:13 48.0 °F 28.7 °F 30.22 in South 3.7 mph -999.0 mph 47% 0 in
20:29 47.8 °F 29.1 °F 30.22 in NNW 2.7 mph -999.0 mph 48% 0 in
20:44 46.2 °F 28.1 °F 30.23 in South 1.1 mph -999.0 mph 49% 0 in
20:59 45.3 °F 28.2 °F 30.24 in South 1.1 mph -999.0 mph 51% 0 in
21:14 43.9 °F 27.9 °F 30.24 in South 2.7 mph -999.0 mph 53% 0 in
21:29 42.3 °F 26.8 °F 30.23 in South 1.7 mph -999.0 mph 54% 0 in
21:45 41.4 °F 26.9 °F 30.24 in South 2.2 mph -999.0 mph 56% 0 in
22:00 40.5 °F 27.3 °F 30.24 in South 1.7 mph -999.0 mph 59% 0 in
22:15 39.9 °F 27.5 °F 30.24 in SSW 1.7 mph -999.0 mph 61% 0 in
22:30 39.6 °F 28.8 °F 30.24 in South 2.2 mph -999.0 mph 65% 0 in
22:46 39.4 °F 30.4 °F 30.23 in SSW 1.7 mph -999.0 mph 70% 0 in
23:01 38.8 °F 30.2 °F 30.23 in SSE 1.1 mph -999.0 mph 71% 0 in
23:16 38.7 °F 31.8 °F 30.23 in Calm   -999.0 mph 76% 0 in
23:31 38.3 °F 31.4 °F 30.22 in South 1.7 mph -999.0 mph 76% 0 in
23:46 38.1 °F 30.5 °F 30.22 in Calm   -999.0 mph 74% 0 in
Big Bear CA Weather